sensor_id;sensor_type;location;lat;lon;timestamp;P1;durP1;ratioP1;P2;durP2;ratioP2
9541;SDS011;4809;48.224;8.572;2023-06-26T00:02:18;7.35;;;6.55;;
9541;SDS011;4809;48.224;8.572;2023-06-26T00:04:43;6.97;;;5.70;;
9541;SDS011;4809;48.224;8.572;2023-06-26T00:07:10;7.78;;;6.78;;
9541;SDS011;4809;48.224;8.572;2023-06-26T00:09:36;7.20;;;6.43;;
9541;SDS011;4809;48.224;8.572;2023-06-26T00:12:02;7.15;;;6.43;;
9541;SDS011;4809;48.224;8.572;2023-06-26T00:14:29;7.50;;;6.50;;
9541;SDS011;4809;48.224;8.572;2023-06-26T00:16:55;7.40;;;6.60;;
9541;SDS011;4809;48.224;8.572;2023-06-26T00:19:20;7.32;;;6.50;;
9541;SDS011;4809;48.224;8.572;2023-06-26T00:21:46;8.00;;;6.38;;
9541;SDS011;4809;48.224;8.572;2023-06-26T00:24:16;7.20;;;6.38;;
9541;SDS011;4809;48.224;8.572;2023-06-26T00:26:42;7.50;;;6.80;;
9541;SDS011;4809;48.224;8.572;2023-06-26T00:29:08;7.10;;;6.40;;
9541;SDS011;4809;48.224;8.572;2023-06-26T00:31:33;7.20;;;6.50;;
9541;SDS011;4809;48.224;8.572;2023-06-26T00:34:00;7.47;;;6.10;;
9541;SDS011;4809;48.224;8.572;2023-06-26T00:36:26;7.47;;;6.63;;
9541;SDS011;4809;48.224;8.572;2023-06-26T00:38:52;6.75;;;6.05;;
9541;SDS011;4809;48.224;8.572;2023-06-26T00:41:18;7.47;;;6.60;;
9541;SDS011;4809;48.224;8.572;2023-06-26T00:43:44;8.57;;;6.60;;
9541;SDS011;4809;48.224;8.572;2023-06-26T00:46:11;6.97;;;6.28;;
9541;SDS011;4809;48.224;8.572;2023-06-26T00:48:38;7.15;;;6.45;;
9541;SDS011;4809;48.224;8.572;2023-06-26T00:51:06;7.13;;;6.40;;
9541;SDS011;4809;48.224;8.572;2023-06-26T00:53:32;8.00;;;7.10;;
9541;SDS011;4809;48.224;8.572;2023-06-26T00:55:58;7.43;;;6.70;;
9541;SDS011;4809;48.224;8.572;2023-06-26T00:58:25;7.28;;;6.57;;
9541;SDS011;4809;48.224;8.572;2023-06-26T01:00:51;7.60;;;6.90;;
9541;SDS011;4809;48.224;8.572;2023-06-26T01:03:17;7.97;;;7.18;;
9541;SDS011;4809;48.224;8.572;2023-06-26T01:05:44;7.80;;;7.03;;
9541;SDS011;4809;48.224;8.572;2023-06-26T01:08:11;7.45;;;6.75;;
9541;SDS011;4809;48.224;8.572;2023-06-26T01:10:38;7.25;;;6.55;;
9541;SDS011;4809;48.224;8.572;2023-06-26T01:13:04;7.57;;;6.72;;
9541;SDS011;4809;48.224;8.572;2023-06-26T01:15:30;7.60;;;6.80;;
9541;SDS011;4809;48.224;8.572;2023-06-26T01:17:57;8.88;;;6.80;;
9541;SDS011;4809;48.224;8.572;2023-06-26T01:20:28;7.90;;;7.10;;
9541;SDS011;4809;48.224;8.572;2023-06-26T01:23:17;7.70;;;6.85;;
9541;SDS011;4809;48.224;8.572;2023-06-26T01:28:16;7.80;;;7.00;;
9541;SDS011;4809;48.224;8.572;2023-06-26T01:30:44;8.52;;;7.47;;
9541;SDS011;4809;48.224;8.572;2023-06-26T01:33:11;7.82;;;7.03;;
9541;SDS011;4809;48.224;8.572;2023-06-26T01:35:38;7.30;;;6.50;;
9541;SDS011;4809;48.224;8.572;2023-06-26T01:38:38;7.88;;;7.07;;
9541;SDS011;4809;48.224;8.572;2023-06-26T01:40:57;7.90;;;7.05;;
9541;SDS011;4809;48.224;8.572;2023-06-26T01:46:16;7.40;;;6.60;;
9541;SDS011;4809;48.224;8.572;2023-06-26T01:49:12;7.30;;;6.60;;
9541;SDS011;4809;48.224;8.572;2023-06-26T01:51:47;7.97;;;7.18;;
9541;SDS011;4809;48.224;8.572;2023-06-26T01:54:20;8.15;;;7.03;;
9541;SDS011;4809;48.224;8.572;2023-06-26T01:56:49;7.28;;;6.45;;
9541;SDS011;4809;48.224;8.572;2023-06-26T01:59:17;7.82;;;7.03;;
9541;SDS011;4809;48.224;8.572;2023-06-26T02:01:44;7.70;;;6.90;;
9541;SDS011;4809;48.224;8.572;2023-06-26T02:04:10;7.93;;;6.95;;
9541;SDS011;4809;48.224;8.572;2023-06-26T02:06:36;7.57;;;6.82;;
9541;SDS011;4809;48.224;8.572;2023-06-26T02:09:02;7.80;;;7.00;;
9541;SDS011;4809;48.224;8.572;2023-06-26T02:11:28;7.45;;;6.75;;
9541;SDS011;4809;48.224;8.572;2023-06-26T02:13:54;6.93;;;6.22;;
9541;SDS011;4809;48.224;8.572;2023-06-26T02:16:19;7.90;;;6.75;;
9541;SDS011;4809;48.224;8.572;2023-06-26T02:18:45;6.80;;;6.18;;
9541;SDS011;4809;48.224;8.572;2023-06-26T02:21:11;6.95;;;6.25;;
9541;SDS011;4809;48.224;8.572;2023-06-26T02:23:38;7.47;;;6.25;;
9541;SDS011;4809;48.224;8.572;2023-06-26T02:26:04;7.57;;;6.78;;
9541;SDS011;4809;48.224;8.572;2023-06-26T02:28:29;7.30;;;6.50;;
9541;SDS011;4809;48.224;8.572;2023-06-26T02:30:56;7.07;;;6.35;;
9541;SDS011;4809;48.224;8.572;2023-06-26T02:33:22;7.25;;;6.47;;
9541;SDS011;4809;48.224;8.572;2023-06-26T02:35:47;6.82;;;6.13;;
9541;SDS011;4809;48.224;8.572;2023-06-26T02:38:15;7.10;;;6.40;;
9541;SDS011;4809;48.224;8.572;2023-06-26T02:40:41;6.93;;;6.22;;
9541;SDS011;4809;48.224;8.572;2023-06-26T02:43:07;7.20;;;6.50;;
9541;SDS011;4809;48.224;8.572;2023-06-26T02:45:32;7.72;;;6.95;;
9541;SDS011;4809;48.224;8.572;2023-06-26T02:47:58;7.10;;;6.40;;
9541;SDS011;4809;48.224;8.572;2023-06-26T02:50:23;7.13;;;6.43;;
9541;SDS011;4809;48.224;8.572;2023-06-26T02:52:49;7.55;;;6.25;;
9541;SDS011;4809;48.224;8.572;2023-06-26T02:55:17;7.75;;;6.45;;
9541;SDS011;4809;48.224;8.572;2023-06-26T02:57:44;7.13;;;6.43;;
9541;SDS011;4809;48.224;8.572;2023-06-26T03:00:10;7.25;;;6.55;;
9541;SDS011;4809;48.224;8.572;2023-06-26T03:02:36;7.53;;;6.68;;
9541;SDS011;4809;48.224;8.572;2023-06-26T03:05:02;7.03;;;6.32;;
9541;SDS011;4809;48.224;8.572;2023-06-26T03:07:29;7.40;;;6.28;;
9541;SDS011;4809;48.224;8.572;2023-06-26T03:09:55;7.22;;;6.25;;
9541;SDS011;4809;48.224;8.572;2023-06-26T03:12:20;6.88;;;6.18;;
9541;SDS011;4809;48.224;8.572;2023-06-26T03:14:46;6.68;;;6.03;;
9541;SDS011;4809;48.224;8.572;2023-06-26T03:17:12;7.05;;;6.32;;
9541;SDS011;4809;48.224;8.572;2023-06-26T03:19:37;7.18;;;6.47;;
9541;SDS011;4809;48.224;8.572;2023-06-26T03:22:03;7.03;;;6.30;;
9541;SDS011;4809;48.224;8.572;2023-06-26T03:24:29;7.18;;;6.38;;
9541;SDS011;4809;48.224;8.572;2023-06-26T03:26:54;7.18;;;6.47;;
9541;SDS011;4809;48.224;8.572;2023-06-26T03:29:20;7.25;;;6.55;;
9541;SDS011;4809;48.224;8.572;2023-06-26T03:31:46;6.95;;;6.28;;
9541;SDS011;4809;48.224;8.572;2023-06-26T03:34:12;6.80;;;6.10;;
9541;SDS011;4809;48.224;8.572;2023-06-26T03:36:37;6.80;;;6.10;;
9541;SDS011;4809;48.224;8.572;2023-06-26T03:39:03;6.82;;;6.13;;
9541;SDS011;4809;48.224;8.572;2023-06-26T03:41:29;6.70;;;6.00;;
9541;SDS011;4809;48.224;8.572;2023-06-26T03:43:55;6.60;;;5.90;;
9541;SDS011;4809;48.224;8.572;2023-06-26T03:46:21;8.65;;;6.50;;
9541;SDS011;4809;48.224;8.572;2023-06-26T03:48:47;7.05;;;5.95;;
9541;SDS011;4809;48.224;8.572;2023-06-26T03:51:13;7.03;;;6.32;;
9541;SDS011;4809;48.224;8.572;2023-06-26T03:53:39;7.35;;;6.57;;
9541;SDS011;4809;48.224;8.572;2023-06-26T03:56:05;6.85;;;6.20;;
9541;SDS011;4809;48.224;8.572;2023-06-26T03:58:30;7.30;;;6.60;;
9541;SDS011;4809;48.224;8.572;2023-06-26T04:00:56;8.98;;;6.80;;
9541;SDS011;4809;48.224;8.572;2023-06-26T04:03:23;7.10;;;6.40;;
9541;SDS011;4809;48.224;8.572;2023-06-26T04:05:49;7.05;;;6.35;;
9541;SDS011;4809;48.224;8.572;2023-06-26T04:08:14;6.68;;;5.97;;
9541;SDS011;4809;48.224;8.572;2023-06-26T04:10:40;7.35;;;5.97;;
9541;SDS011;4809;48.224;8.572;2023-06-26T04:13:06;7.75;;;6.40;;
9541;SDS011;4809;48.224;8.572;2023-06-26T04:15:31;6.90;;;6.20;;
9541;SDS011;4809;48.224;8.572;2023-06-26T04:17:57;6.80;;;6.10;;
9541;SDS011;4809;48.224;8.572;2023-06-26T04:20:23;8.07;;;6.38;;
9541;SDS011;4809;48.224;8.572;2023-06-26T04:22:48;7.05;;;6.35;;
9541;SDS011;4809;48.224;8.572;2023-06-26T04:25:14;7.03;;;5.88;;
9541;SDS011;4809;48.224;8.572;2023-06-26T04:27:40;6.70;;;6.00;;
9541;SDS011;4809;48.224;8.572;2023-06-26T04:30:06;6.68;;;5.93;;
9541;SDS011;4809;48.224;8.572;2023-06-26T04:32:32;7.68;;;6.30;;
9541;SDS011;4809;48.224;8.572;2023-06-26T04:34:58;9.43;;;6.45;;
9541;SDS011;4809;48.224;8.572;2023-06-26T04:37:24;7.75;;;6.80;;
9541;SDS011;4809;48.224;8.572;2023-06-26T04:39:50;6.90;;;6.20;;
9541;SDS011;4809;48.224;8.572;2023-06-26T04:42:15;7.43;;;6.40;;
9541;SDS011;4809;48.224;8.572;2023-06-26T04:44:41;7.68;;;6.65;;
9541;SDS011;4809;48.224;8.572;2023-06-26T04:47:07;7.32;;;6.38;;
9541;SDS011;4809;48.224;8.572;2023-06-26T04:49:33;7.57;;;6.70;;
9541;SDS011;4809;48.224;8.572;2023-06-26T04:51:59;9.23;;;7.00;;
9541;SDS011;4809;48.224;8.572;2023-06-26T04:54:25;7.93;;;6.63;;
9541;SDS011;4809;48.224;8.572;2023-06-26T04:56:52;7.60;;;6.60;;
9541;SDS011;4809;48.224;8.572;2023-06-26T04:59:17;8.15;;;6.57;;
9541;SDS011;4809;48.224;8.572;2023-06-26T05:01:43;9.48;;;6.55;;
9541;SDS011;4809;48.224;8.572;2023-06-26T05:04:12;14.05;;;7.53;;
9541;SDS011;4809;48.224;8.572;2023-06-26T05:06:39;9.05;;;7.30;;
9541;SDS011;4809;48.224;8.572;2023-06-26T05:09:04;9.32;;;6.80;;
9541;SDS011;4809;48.224;8.572;2023-06-26T05:11:30;9.82;;;7.60;;
9541;SDS011;4809;48.224;8.572;2023-06-26T05:13:55;8.43;;;7.22;;
9541;SDS011;4809;48.224;8.572;2023-06-26T05:16:21;8.43;;;6.75;;
9541;SDS011;4809;48.224;8.572;2023-06-26T05:18:47;8.45;;;6.80;;
9541;SDS011;4809;48.224;8.572;2023-06-26T05:21:12;7.55;;;6.57;;
9541;SDS011;4809;48.224;8.572;2023-06-26T05:23:38;7.20;;;6.50;;
9541;SDS011;4809;48.224;8.572;2023-06-26T05:26:05;7.50;;;6.63;;
9541;SDS011;4809;48.224;8.572;2023-06-26T05:28:31;7.15;;;6.45;;
9541;SDS011;4809;48.224;8.572;2023-06-26T05:30:57;7.30;;;6.47;;
9541;SDS011;4809;48.224;8.572;2023-06-26T05:33:24;7.13;;;6.30;;
9541;SDS011;4809;48.224;8.572;2023-06-26T05:35:51;7.25;;;6.10;;
9541;SDS011;4809;48.224;8.572;2023-06-26T05:38:18;7.45;;;6.35;;
9541;SDS011;4809;48.224;8.572;2023-06-26T05:40:44;6.57;;;5.63;;
9541;SDS011;4809;48.224;8.572;2023-06-26T05:43:10;6.57;;;5.90;;
9541;SDS011;4809;48.224;8.572;2023-06-26T05:45:36;7.30;;;6.60;;
9541;SDS011;4809;48.224;8.572;2023-06-26T05:48:01;7.03;;;6.30;;
9541;SDS011;4809;48.224;8.572;2023-06-26T05:50:28;6.90;;;6.20;;
9541;SDS011;4809;48.224;8.572;2023-06-26T05:52:54;8.05;;;7.18;;
9541;SDS011;4809;48.224;8.572;2023-06-26T05:55:20;8.57;;;6.63;;
9541;SDS011;4809;48.224;8.572;2023-06-26T05:57:46;11.55;;;7.00;;
9541;SDS011;4809;48.224;8.572;2023-06-26T06:00:13;7.10;;;6.40;;
9541;SDS011;4809;48.224;8.572;2023-06-26T06:02:39;7.25;;;6.00;;
9541;SDS011;4809;48.224;8.572;2023-06-26T06:05:07;6.80;;;6.15;;
9541;SDS011;4809;48.224;8.572;2023-06-26T06:07:33;7.45;;;6.50;;
9541;SDS011;4809;48.224;8.572;2023-06-26T06:10:00;7.22;;;6.38;;
9541;SDS011;4809;48.224;8.572;2023-06-26T06:12:27;6.82;;;6.07;;
9541;SDS011;4809;48.224;8.572;2023-06-26T06:14:53;7.05;;;5.90;;
9541;SDS011;4809;48.224;8.572;2023-06-26T06:17:19;6.90;;;6.20;;
9541;SDS011;4809;48.224;8.572;2023-06-26T06:19:45;6.45;;;5.85;;
9541;SDS011;4809;48.224;8.572;2023-06-26T06:22:11;7.93;;;6.38;;
9541;SDS011;4809;48.224;8.572;2023-06-26T06:24:37;7.85;;;6.47;;
9541;SDS011;4809;48.224;8.572;2023-06-26T06:27:02;7.22;;;6.50;;
9541;SDS011;4809;48.224;8.572;2023-06-26T06:29:28;7.18;;;6.15;;
9541;SDS011;4809;48.224;8.572;2023-06-26T06:31:54;10.38;;;7.07;;
9541;SDS011;4809;48.224;8.572;2023-06-26T06:34:20;8.45;;;6.50;;
9541;SDS011;4809;48.224;8.572;2023-06-26T06:36:46;8.45;;;6.78;;
9541;SDS011;4809;48.224;8.572;2023-06-26T06:39:11;8.05;;;6.70;;
9541;SDS011;4809;48.224;8.572;2023-06-26T06:41:38;7.43;;;6.50;;
9541;SDS011;4809;48.224;8.572;2023-06-26T06:44:03;7.65;;;6.47;;
9541;SDS011;4809;48.224;8.572;2023-06-26T06:46:29;7.63;;;6.28;;
9541;SDS011;4809;48.224;8.572;2023-06-26T06:48:55;8.85;;;7.07;;
9541;SDS011;4809;48.224;8.572;2023-06-26T06:51:21;10.20;;;6.72;;
9541;SDS011;4809;48.224;8.572;2023-06-26T06:53:47;9.07;;;6.82;;
9541;SDS011;4809;48.224;8.572;2023-06-26T06:56:13;8.13;;;6.47;;
9541;SDS011;4809;48.224;8.572;2023-06-26T06:58:38;8.93;;;7.00;;
9541;SDS011;4809;48.224;8.572;2023-06-26T07:01:07;8.23;;;6.60;;
9541;SDS011;4809;48.224;8.572;2023-06-26T07:03:34;8.68;;;7.28;;
9541;SDS011;4809;48.224;8.572;2023-06-26T07:05:59;9.02;;;6.90;;
9541;SDS011;4809;48.224;8.572;2023-06-26T07:08:26;9.82;;;6.85;;
9541;SDS011;4809;48.224;8.572;2023-06-26T07:10:51;9.40;;;6.75;;
9541;SDS011;4809;48.224;8.572;2023-06-26T07:13:17;10.45;;;7.18;;
9541;SDS011;4809;48.224;8.572;2023-06-26T07:15:43;7.90;;;6.47;;
9541;SDS011;4809;48.224;8.572;2023-06-26T07:18:09;10.25;;;6.90;;
9541;SDS011;4809;48.224;8.572;2023-06-26T07:20:34;9.15;;;6.60;;
9541;SDS011;4809;48.224;8.572;2023-06-26T07:23:00;9.43;;;6.85;;
9541;SDS011;4809;48.224;8.572;2023-06-26T07:25:26;8.02;;;6.70;;
9541;SDS011;4809;48.224;8.572;2023-06-26T07:27:51;7.93;;;6.85;;
9541;SDS011;4809;48.224;8.572;2023-06-26T07:30:17;7.72;;;6.50;;
9541;SDS011;4809;48.224;8.572;2023-06-26T07:32:44;9.60;;;6.50;;
9541;SDS011;4809;48.224;8.572;2023-06-26T07:35:10;12.00;;;6.80;;
9541;SDS011;4809;48.224;8.572;2023-06-26T07:37:36;8.23;;;6.68;;
9541;SDS011;4809;48.224;8.572;2023-06-26T07:40:02;7.72;;;6.72;;
9541;SDS011;4809;48.224;8.572;2023-06-26T07:42:29;10.43;;;7.63;;
9541;SDS011;4809;48.224;8.572;2023-06-26T07:44:55;7.90;;;6.60;;
9541;SDS011;4809;48.224;8.572;2023-06-26T07:47:20;8.63;;;6.93;;
9541;SDS011;4809;48.224;8.572;2023-06-26T07:49:46;7.60;;;5.80;;
9541;SDS011;4809;48.224;8.572;2023-06-26T07:52:12;5.82;;;5.22;;
9541;SDS011;4809;48.224;8.572;2023-06-26T07:54:40;8.30;;;5.95;;
9541;SDS011;4809;48.224;8.572;2023-06-26T07:57:05;6.22;;;5.63;;
9541;SDS011;4809;48.224;8.572;2023-06-26T07:59:32;6.20;;;5.60;;
9541;SDS011;4809;48.224;8.572;2023-06-26T08:01:58;6.03;;;5.40;;
9541;SDS011;4809;48.224;8.572;2023-06-26T08:04:25;6.32;;;5.35;;
9541;SDS011;4809;48.224;8.572;2023-06-26T08:06:53;6.00;;;5.40;;
9541;SDS011;4809;48.224;8.572;2023-06-26T08:09:21;6.40;;;5.40;;
9541;SDS011;4809;48.224;8.572;2023-06-26T08:11:49;6.10;;;5.60;;
9541;SDS011;4809;48.224;8.572;2023-06-26T08:14:15;7.15;;;5.63;;
9541;SDS011;4809;48.224;8.572;2023-06-26T08:16:41;5.80;;;5.20;;
9541;SDS011;4809;48.224;8.572;2023-06-26T08:19:09;6.22;;;5.57;;
9541;SDS011;4809;48.224;8.572;2023-06-26T08:21:37;5.75;;;5.07;;
9541;SDS011;4809;48.224;8.572;2023-06-26T08:24:03;6.28;;;5.68;;
9541;SDS011;4809;48.224;8.572;2023-06-26T08:26:29;5.88;;;5.38;;
9541;SDS011;4809;48.224;8.572;2023-06-26T08:28:54;6.00;;;5.40;;
9541;SDS011;4809;48.224;8.572;2023-06-26T08:31:20;6.05;;;5.50;;
9541;SDS011;4809;48.224;8.572;2023-06-26T08:33:46;6.43;;;5.82;;
9541;SDS011;4809;48.224;8.572;2023-06-26T08:36:12;6.72;;;5.63;;
9541;SDS011;4809;48.224;8.572;2023-06-26T08:38:38;6.63;;;5.47;;
9541;SDS011;4809;48.224;8.572;2023-06-26T08:41:05;5.88;;;5.38;;
9541;SDS011;4809;48.224;8.572;2023-06-26T08:43:34;7.40;;;5.32;;
9541;SDS011;4809;48.224;8.572;2023-06-26T08:46:00;6.00;;;5.40;;
9541;SDS011;4809;48.224;8.572;2023-06-26T08:48:26;6.72;;;6.00;;
9541;SDS011;4809;48.224;8.572;2023-06-26T08:50:56;5.78;;;5.18;;
9541;SDS011;4809;48.224;8.572;2023-06-26T08:56:41;6.18;;;5.57;;
9541;SDS011;4809;48.224;8.572;2023-06-26T08:59:09;6.32;;;5.72;;
9541;SDS011;4809;48.224;8.572;2023-06-26T09:01:35;6.30;;;5.70;;
9541;SDS011;4809;48.224;8.572;2023-06-26T09:04:01;6.75;;;5.70;;
9541;SDS011;4809;48.224;8.572;2023-06-26T09:06:28;6.50;;;5.90;;
9541;SDS011;4809;48.224;8.572;2023-06-26T09:08:53;6.47;;;5.88;;
9541;SDS011;4809;48.224;8.572;2023-06-26T09:11:20;6.15;;;5.55;;
9541;SDS011;4809;48.224;8.572;2023-06-26T09:13:45;6.13;;;5.53;;
9541;SDS011;4809;48.224;8.572;2023-06-26T09:16:12;6.68;;;5.97;;
9541;SDS011;4809;48.224;8.572;2023-06-26T09:18:39;6.88;;;5.57;;
9541;SDS011;4809;48.224;8.572;2023-06-26T09:21:07;6.30;;;5.70;;
9541;SDS011;4809;48.224;8.572;2023-06-26T09:23:34;7.40;;;5.32;;
9541;SDS011;4809;48.224;8.572;2023-06-26T09:26:02;7.07;;;5.68;;
9541;SDS011;4809;48.224;8.572;2023-06-26T09:28:29;7.05;;;5.90;;
9541;SDS011;4809;48.224;8.572;2023-06-26T09:30:59;6.13;;;5.53;;
9541;SDS011;4809;48.224;8.572;2023-06-26T09:33:36;6.72;;;6.13;;
9541;SDS011;4809;48.224;8.572;2023-06-26T09:36:09;6.50;;;5.80;;
9541;SDS011;4809;48.224;8.572;2023-06-26T09:38:46;7.30;;;5.97;;
9541;SDS011;4809;48.224;8.572;2023-06-26T09:41:15;9.80;;;6.20;;
9541;SDS011;4809;48.224;8.572;2023-06-26T09:43:46;8.30;;;6.10;;
9541;SDS011;4809;48.224;8.572;2023-06-26T09:46:26;6.50;;;5.90;;
9541;SDS011;4809;48.224;8.572;2023-06-26T09:51:28;6.72;;;6.00;;
9541;SDS011;4809;48.224;8.572;2023-06-26T09:53:55;8.32;;;6.05;;
9541;SDS011;4809;48.224;8.572;2023-06-26T09:56:21;6.75;;;6.15;;
9541;SDS011;4809;48.224;8.572;2023-06-26T09:58:47;7.05;;;6.35;;
9541;SDS011;4809;48.224;8.572;2023-06-26T10:01:13;7.45;;;6.75;;
9541;SDS011;4809;48.224;8.572;2023-06-26T10:03:39;7.53;;;6.82;;
9541;SDS011;4809;48.224;8.572;2023-06-26T10:06:05;6.82;;;6.22;;
9541;SDS011;4809;48.224;8.572;2023-06-26T10:08:32;8.43;;;6.30;;
9541;SDS011;4809;48.224;8.572;2023-06-26T10:11:01;7.30;;;6.60;;
9541;SDS011;4809;48.224;8.572;2023-06-26T10:13:35;7.22;;;6.53;;
9541;SDS011;4809;48.224;8.572;2023-06-26T10:16:05;7.43;;;6.43;;
9541;SDS011;4809;48.224;8.572;2023-06-26T10:18:32;7.82;;;7.13;;
9541;SDS011;4809;48.224;8.572;2023-06-26T10:21:00;7.57;;;6.78;;
9541;SDS011;4809;48.224;8.572;2023-06-26T10:23:28;7.70;;;6.93;;
9541;SDS011;4809;48.224;8.572;2023-06-26T10:25:57;7.75;;;6.95;;
9541;SDS011;4809;48.224;8.572;2023-06-26T10:28:25;7.60;;;6.90;;
9541;SDS011;4809;48.224;8.572;2023-06-26T10:30:55;7.60;;;6.82;;
9541;SDS011;4809;48.224;8.572;2023-06-26T10:33:21;7.35;;;6.65;;
9541;SDS011;4809;48.224;8.572;2023-06-26T10:35:47;8.55;;;6.88;;
9541;SDS011;4809;48.224;8.572;2023-06-26T10:38:13;8.27;;;7.47;;
9541;SDS011;4809;48.224;8.572;2023-06-26T10:40:40;7.18;;;6.47;;
9541;SDS011;4809;48.224;8.572;2023-06-26T10:43:15;7.80;;;7.00;;
9541;SDS011;4809;48.224;8.572;2023-06-26T10:48:12;7.80;;;7.00;;
9541;SDS011;4809;48.224;8.572;2023-06-26T10:50:39;8.75;;;7.82;;
9541;SDS011;4809;48.224;8.572;2023-06-26T10:56:02;8.00;;;7.18;;
9541;SDS011;4809;48.224;8.572;2023-06-26T11:03:37;8.15;;;7.35;;
9541;SDS011;4809;48.224;8.572;2023-06-26T11:06:08;7.60;;;6.90;;
9541;SDS011;4809;48.224;8.572;2023-06-26T11:08:48;8.15;;;7.18;;
9541;SDS011;4809;48.224;8.572;2023-06-26T11:11:19;7.72;;;7.03;;
9541;SDS011;4809;48.224;8.572;2023-06-26T11:13:46;7.63;;;6.68;;
9541;SDS011;4809;48.224;8.572;2023-06-26T11:16:13;8.52;;;7.55;;
9541;SDS011;4809;48.224;8.572;2023-06-26T11:18:40;8.68;;;6.90;;
9541;SDS011;4809;48.224;8.572;2023-06-26T11:21:09;8.98;;;7.43;;
9541;SDS011;4809;48.224;8.572;2023-06-26T11:23:38;7.72;;;7.03;;
9541;SDS011;4809;48.224;8.572;2023-06-26T11:28:45;8.05;;;7.35;;
9541;SDS011;4809;48.224;8.572;2023-06-26T11:31:26;8.70;;;7.82;;
9541;SDS011;4809;48.224;8.572;2023-06-26T11:33:55;9.48;;;7.70;;
9541;SDS011;4809;48.224;8.572;2023-06-26T11:36:25;8.15;;;7.35;;
9541;SDS011;4809;48.224;8.572;2023-06-26T11:38:52;8.73;;;7.82;;
9541;SDS011;4809;48.224;8.572;2023-06-26T11:41:19;9.73;;;8.43;;
9541;SDS011;4809;48.224;8.572;2023-06-26T11:43:44;8.63;;;7.82;;
9541;SDS011;4809;48.224;8.572;2023-06-26T11:46:10;8.15;;;7.35;;
9541;SDS011;4809;48.224;8.572;2023-06-26T11:48:36;8.40;;;7.65;;
9541;SDS011;4809;48.224;8.572;2023-06-26T11:51:04;8.10;;;7.40;;
9541;SDS011;4809;48.224;8.572;2023-06-26T11:53:30;8.40;;;7.60;;
9541;SDS011;4809;48.224;8.572;2023-06-26T11:55:56;9.32;;;8.40;;
9541;SDS011;4809;48.224;8.572;2023-06-26T11:58:22;8.30;;;7.45;;
9541;SDS011;4809;48.224;8.572;2023-06-26T12:00:48;8.13;;;7.25;;
9541;SDS011;4809;48.224;8.572;2023-06-26T12:03:13;8.32;;;7.53;;
9541;SDS011;4809;48.224;8.572;2023-06-26T12:05:40;8.40;;;7.60;;
9541;SDS011;4809;48.224;8.572;2023-06-26T12:08:06;8.90;;;8.00;;
9541;SDS011;4809;48.224;8.572;2023-06-26T12:10:32;9.07;;;8.00;;
9541;SDS011;4809;48.224;8.572;2023-06-26T12:12:58;8.75;;;7.60;;
9541;SDS011;4809;48.224;8.572;2023-06-26T12:15:26;8.73;;;7.88;;
9541;SDS011;4809;48.224;8.572;2023-06-26T12:17:53;8.45;;;7.57;;
9541;SDS011;4809;48.224;8.572;2023-06-26T12:20:20;9.13;;;8.32;;
9541;SDS011;4809;48.224;8.572;2023-06-26T12:22:47;8.80;;;8.00;;
9541;SDS011;4809;48.224;8.572;2023-06-26T12:25:14;9.18;;;8.27;;
9541;SDS011;4809;48.224;8.572;2023-06-26T12:27:40;8.93;;;8.02;;
9541;SDS011;4809;48.224;8.572;2023-06-26T12:30:06;8.35;;;7.60;;
9541;SDS011;4809;48.224;8.572;2023-06-26T12:32:32;8.60;;;7.80;;
9541;SDS011;4809;48.224;8.572;2023-06-26T12:34:59;8.48;;;7.68;;
9541;SDS011;4809;48.224;8.572;2023-06-26T12:37:26;8.85;;;8.05;;
9541;SDS011;4809;48.224;8.572;2023-06-26T12:39:55;9.02;;;7.90;;
9541;SDS011;4809;48.224;8.572;2023-06-26T12:42:26;8.60;;;7.75;;
9541;SDS011;4809;48.224;8.572;2023-06-26T12:44:53;8.50;;;7.70;;
9541;SDS011;4809;48.224;8.572;2023-06-26T12:47:26;9.10;;;8.23;;
9541;SDS011;4809;48.224;8.572;2023-06-26T12:49:53;9.25;;;8.40;;
9541;SDS011;4809;48.224;8.572;2023-06-26T12:52:21;8.50;;;7.70;;
9541;SDS011;4809;48.224;8.572;2023-06-26T12:54:51;8.63;;;7.65;;
9541;SDS011;4809;48.224;8.572;2023-06-26T12:57:17;9.43;;;7.90;;
9541;SDS011;4809;48.224;8.572;2023-06-26T12:59:43;8.63;;;7.80;;
9541;SDS011;4809;48.224;8.572;2023-06-26T13:02:09;9.35;;;8.25;;
9541;SDS011;4809;48.224;8.572;2023-06-26T13:04:38;8.40;;;7.68;;
9541;SDS011;4809;48.224;8.572;2023-06-26T13:07:09;8.35;;;7.55;;
9541;SDS011;4809;48.224;8.572;2023-06-26T13:09:35;8.52;;;7.60;;
9541;SDS011;4809;48.224;8.572;2023-06-26T13:12:02;9.35;;;8.25;;
9541;SDS011;4809;48.224;8.572;2023-06-26T13:14:31;8.95;;;8.07;;
9541;SDS011;4809;48.224;8.572;2023-06-26T13:16:57;8.85;;;7.95;;
9541;SDS011;4809;48.224;8.572;2023-06-26T13:19:23;8.65;;;7.85;;
9541;SDS011;4809;48.224;8.572;2023-06-26T13:21:49;8.50;;;7.70;;
9541;SDS011;4809;48.224;8.572;2023-06-26T13:24:14;8.55;;;7.55;;
9541;SDS011;4809;48.224;8.572;2023-06-26T13:26:40;9.38;;;7.97;;
9541;SDS011;4809;48.224;8.572;2023-06-26T13:29:06;8.75;;;7.85;;
9541;SDS011;4809;48.224;8.572;2023-06-26T13:31:32;8.38;;;7.60;;
9541;SDS011;4809;48.224;8.572;2023-06-26T13:33:58;8.50;;;7.43;;
9541;SDS011;4809;48.224;8.572;2023-06-26T13:36:24;7.97;;;7.18;;
9541;SDS011;4809;48.224;8.572;2023-06-26T13:38:51;7.88;;;7.05;;
9541;SDS011;4809;48.224;8.572;2023-06-26T13:41:23;8.27;;;6.85;;
9541;SDS011;4809;48.224;8.572;2023-06-26T13:43:50;9.27;;;7.50;;
9541;SDS011;4809;48.224;8.572;2023-06-26T13:46:16;8.10;;;7.22;;
9541;SDS011;4809;48.224;8.572;2023-06-26T13:48:42;10.23;;;6.97;;
9541;SDS011;4809;48.224;8.572;2023-06-26T13:51:09;7.90;;;7.10;;
9541;SDS011;4809;48.224;8.572;2023-06-26T13:53:34;7.82;;;7.03;;
9541;SDS011;4809;48.224;8.572;2023-06-26T13:56:00;8.05;;;7.20;;
9541;SDS011;4809;48.224;8.572;2023-06-26T13:58:26;7.75;;;7.00;;
9541;SDS011;4809;48.224;8.572;2023-06-26T14:00:53;8.25;;;7.15;;
9541;SDS011;4809;48.224;8.572;2023-06-26T14:03:19;8.05;;;7.18;;
9541;SDS011;4809;48.224;8.572;2023-06-26T14:05:44;7.65;;;6.85;;
9541;SDS011;4809;48.224;8.572;2023-06-26T14:08:10;8.10;;;6.75;;
9541;SDS011;4809;48.224;8.572;2023-06-26T14:10:36;7.95;;;7.15;;
9541;SDS011;4809;48.224;8.572;2023-06-26T14:13:02;8.18;;;7.15;;
9541;SDS011;4809;48.224;8.572;2023-06-26T14:15:29;8.57;;;6.82;;
9541;SDS011;4809;48.224;8.572;2023-06-26T14:17:55;8.05;;;6.90;;
9541;SDS011;4809;48.224;8.572;2023-06-26T14:20:21;8.20;;;7.10;;
9541;SDS011;4809;48.224;8.572;2023-06-26T14:22:47;8.25;;;6.45;;
9541;SDS011;4809;48.224;8.572;2023-06-26T14:25:13;7.63;;;6.38;;
9541;SDS011;4809;48.224;8.572;2023-06-26T14:27:40;7.72;;;6.90;;
9541;SDS011;4809;48.224;8.572;2023-06-26T14:30:06;7.20;;;6.43;;
9541;SDS011;4809;48.224;8.572;2023-06-26T14:32:33;7.47;;;6.43;;
9541;SDS011;4809;48.224;8.572;2023-06-26T14:34:59;6.97;;;6.28;;
9541;SDS011;4809;48.224;8.572;2023-06-26T14:37:26;10.63;;;6.50;;
9541;SDS011;4809;48.224;8.572;2023-06-26T14:39:55;6.63;;;6.00;;
9541;SDS011;4809;48.224;8.572;2023-06-26T14:42:20;6.90;;;6.20;;
9541;SDS011;4809;48.224;8.572;2023-06-26T14:44:46;7.00;;;6.25;;
9541;SDS011;4809;48.224;8.572;2023-06-26T14:47:13;7.85;;;6.60;;
9541;SDS011;4809;48.224;8.572;2023-06-26T14:49:39;6.68;;;5.95;;
9541;SDS011;4809;48.224;8.572;2023-06-26T14:52:05;6.82;;;5.97;;
9541;SDS011;4809;48.224;8.572;2023-06-26T14:54:31;7.25;;;6.47;;
9541;SDS011;4809;48.224;8.572;2023-06-26T14:56:57;8.85;;;6.22;;
9541;SDS011;4809;48.224;8.572;2023-06-26T14:59:23;8.05;;;6.55;;
9541;SDS011;4809;48.224;8.572;2023-06-26T15:01:49;6.45;;;5.57;;
9541;SDS011;4809;48.224;8.572;2023-06-26T15:04:14;6.63;;;5.82;;
9541;SDS011;4809;48.224;8.572;2023-06-26T15:06:40;6.40;;;5.70;;
9541;SDS011;4809;48.224;8.572;2023-06-26T15:09:06;7.25;;;6.28;;
9541;SDS011;4809;48.224;8.572;2023-06-26T15:11:31;6.40;;;5.78;;
9541;SDS011;4809;48.224;8.572;2023-06-26T15:13:57;7.30;;;5.20;;
9541;SDS011;4809;48.224;8.572;2023-06-26T15:16:23;7.38;;;5.35;;
9541;SDS011;4809;48.224;8.572;2023-06-26T15:18:48;5.95;;;5.35;;
9541;SDS011;4809;48.224;8.572;2023-06-26T15:21:14;6.03;;;5.50;;
9541;SDS011;4809;48.224;8.572;2023-06-26T15:23:39;6.32;;;5.20;;
9541;SDS011;4809;48.224;8.572;2023-06-26T15:26:05;6.10;;;5.30;;
9541;SDS011;4809;48.224;8.572;2023-06-26T15:28:31;6.13;;;5.10;;
9541;SDS011;4809;48.224;8.572;2023-06-26T15:30:56;6.15;;;5.00;;
9541;SDS011;4809;48.224;8.572;2023-06-26T15:33:22;4.95;;;4.45;;
9541;SDS011;4809;48.224;8.572;2023-06-26T15:35:50;4.82;;;4.40;;
9541;SDS011;4809;48.224;8.572;2023-06-26T15:38:16;5.38;;;4.53;;